Time;durP1;ratioP1;P1;durP2;ratioP2;P2;SDS_P1;SDS_P2;PMS_P1;PMS_P2;Temp;Humidity;BMP_temperature;BMP_pressure;BME280_temperature;BME280_humidity;BME280_pressure;Samples;Min_cycle;Max_cycle;Signal;HPM_P1;HPM_P2
2024/01/20 00:01:22;;;;;;;;;;;;;;;7.85;91.30;98323.16;5073702;28;20356;-78
2024/01/20 00:03:47;;;;;;;;;;;;;;;7.80;90.24;98329.16;5091898;28;19966;-78
2024/01/20 00:06:13;;;;;;;;;;;;;;;7.75;90.20;98330.47;5091520;28;19912;-78
2024/01/20 00:08:38;;;;;;;;;;;;;;;7.71;90.33;98327.03;5090650;28;20015;-78
2024/01/20 00:11:03;;;;;;;;;;;;;;;7.75;90.06;98335.19;5092095;28;20438;-77
2024/01/20 00:13:29;;;;;;;;;;;;;;;7.71;90.01;98342.75;5091782;28;19934;-78
2024/01/20 00:15:54;;;;;;;;;;;;;;;7.72;88.95;98349.75;5091835;28;19920;-79
2024/01/20 00:18:19;;;;;;;;;;;;;;;7.71;88.44;98357.28;5090159;28;19986;-77
2024/01/20 00:20:45;;;;;;;;;;;;;;;7.66;88.34;98354.22;5090247;28;19916;-79
2024/01/20 00:23:11;;;;;;;;;;;;;;;7.63;88.53;98357.84;5073918;28;20399;-78
2024/01/20 00:25:36;;;;;;;;;;;;;;;7.60;88.41;98369.66;5090613;28;19948;-77
2024/01/20 00:28:03;;;;;;;;;;;;;;;7.48;87.58;98368.34;5091616;28;20298;-77
2024/01/20 00:30:29;;;;;;;;;;;;;;;7.52;87.39;98374.56;5090252;28;19920;-79
2024/01/20 00:32:54;;;;;;;;;;;;;;;7.44;88.11;98378.63;5089536;28;20436;-78
2024/01/20 00:35:20;;;;;;;;;;;;;;;7.45;87.37;98382.16;5089934;28;19971;-78
2024/01/20 00:37:45;;;;;;;;;;;;;;;7.38;87.63;98382.28;5090506;28;20303;-78
2024/01/20 00:40:11;;;;;;;;;;;;;;;7.39;86.16;98389.34;5090146;28;20002;-78
2024/01/20 00:42:36;;;;;;;;;;;;;;;7.38;87.60;98396.03;5090349;28;19912;-77
2024/01/20 00:45:02;;;;;;;;;;;;;;;7.39;87.10;98398.38;5090072;28;20376;-77
2024/01/20 00:47:27;;;;;;;;;;;;;;;7.23;88.32;98401.78;5091651;28;19919;-78
2024/01/20 00:49:52;;;;;;;;;;;;;;;7.22;86.00;98399.50;5089910;28;19927;-78
2024/01/20 00:52:18;;;;;;;;;;;;;;;7.26;87.16;98414.69;5090151;28;19961;-78
2024/01/20 00:54:43;;;;;;;;;;;;;;;7.14;87.16;98401.59;5090791;28;19926;-78
2024/01/20 00:57:08;;;;;;;;;;;;;;;7.12;87.33;98403.97;5091112;28;21880;-79
2024/01/20 00:59:34;;;;;;;;;;;;;;;7.15;85.39;98408.63;5089966;28;20152;-77
2024/01/20 01:01:59;;;;;;;;;;;;;;;7.12;85.09;98417.69;5091320;28;19923;-78
2024/01/20 01:04:24;;;;;;;;;;;;;;;7.09;85.63;98415.81;5091324;28;19916;-78
2024/01/20 01:06:49;;;;;;;;;;;;;;;7.05;85.04;98419.81;5091574;28;20360;-78
2024/01/20 01:09:15;;;;;;;;;;;;;;;6.98;86.57;98409.72;5091130;28;19919;-78
2024/01/20 01:11:41;;;;;;;;;;;;;;;6.89;85.97;98415.75;5089834;28;20040;-78
2024/01/20 01:14:06;;;;;;;;;;;;;;;6.84;85.55;98420.97;5089928;28;20371;-78
2024/01/20 01:16:31;;;;;;;;;;;;;;;6.84;85.09;98421.72;5091464;28;19912;-79
2024/01/20 01:18:57;;;;;;;;;;;;;;;6.86;84.37;98416.59;5089610;28;19912;-78
2024/01/20 01:21:22;;;;;;;;;;;;;;;6.90;84.42;98419.28;5089861;28;19912;-78
2024/01/20 01:23:47;;;;;;;;;;;;;;;6.90;85.25;98422.81;5091330;28;19915;-78
2024/01/20 01:26:13;;;;;;;;;;;;;;;6.89;84.02;98434.19;5089895;28;19912;-77
2024/01/20 01:28:38;;;;;;;;;;;;;;;6.89;84.32;98434.19;5091087;28;19912;-78
2024/01/20 01:31:03;;;;;;;;;;;;;;;6.76;82.79;98442.25;5089926;28;20064;-79
2024/01/20 01:33:28;;;;;;;;;;;;;;;6.74;83.26;98438.38;5076164;28;20364;-78
2024/01/20 01:35:54;;;;;;;;;;;;;;;6.69;82.82;98441.63;5089829;28;20430;-78
2024/01/20 01:38:19;;;;;;;;;;;;;;;6.66;83.37;98442.44;5090841;28;19922;-78
2024/01/20 01:40:44;;;;;;;;;;;;;;;6.63;82.99;98444.03;5089919;28;19927;-79
2024/01/20 01:43:10;;;;;;;;;;;;;;;6.59;82.94;98442.53;5090993;28;19916;-78
2024/01/20 01:45:35;;;;;;;;;;;;;;;6.59;83.36;98461.75;5093204;28;19908;-79
2024/01/20 01:48:00;;;;;;;;;;;;;;;6.56;83.31;98468.88;5093205;28;20391;-78
2024/01/20 01:50:27;;;;;;;;;;;;;;;6.57;82.57;98472.38;5094312;28;19939;-78
2024/01/20 01:52:56;;;;;;;;;;;;;;;6.57;81.65;98477.88;5094679;28;20441;-78
2024/01/20 01:55:24;;;;;;;;;;;;;;;6.50;83.24;98482.28;5094218;28;20312;-79
2024/01/20 01:57:54;;;;;;;;;;;;;;;6.55;81.62;98486.53;5093182;28;20379;-78
2024/01/20 02:00:20;;;;;;;;;;;;;;;6.58;81.42;98491.16;5092988;28;19944;-77
2024/01/20 02:02:45;;;;;;;;;;;;;;;6.56;79.34;98493.56;5092863;28;19962;-77
2024/01/20 02:05:10;;;;;;;;;;;;;;;6.50;78.96;98485.03;5093218;28;20300;-78
2024/01/20 02:07:37;;;;;;;;;;;;;;;6.54;78.01;98479.47;5093055;28;19919;-78
2024/01/20 02:10:04;;;;;;;;;;;;;;;6.48;80.95;98481.13;5092887;28;19916;-78
2024/01/20 02:12:29;;;;;;;;;;;;;;;6.39;81.75;98478.88;5090838;28;19942;-77
2024/01/20 02:14:55;;;;;;;;;;;;;;;6.39;81.86;98489.88;5082323;28;19927;-78
2024/01/20 02:17:20;;;;;;;;;;;;;;;6.36;80.45;98478.94;5093302;28;19911;-77
2024/01/20 02:19:45;;;;;;;;;;;;;;;6.32;79.77;98492.72;5092925;28;19908;-78
2024/01/20 02:22:11;;;;;;;;;;;;;;;6.34;80.85;98504.06;5092562;28;20402;-78
2024/01/20 02:24:37;;;;;;;;;;;;;;;6.36;81.92;98500.91;5092432;28;20367;-78
2024/01/20 02:27:03;;;;;;;;;;;;;;;6.31;81.97;98510.38;5092436;28;19919;-77
2024/01/20 02:29:28;;;;;;;;;;;;;;;6.29;82.14;98501.78;5092599;28;19916;-78
2024/01/20 02:31:53;;;;;;;;;;;;;;;6.24;80.41;98512.44;5091872;28;19925;-77
2024/01/20 02:34:19;;;;;;;;;;;;;;;6.18;78.95;98512.09;5080870;28;19931;-78
2024/01/20 02:36:44;;;;;;;;;;;;;;;6.08;79.50;98507.53;5092578;28;19935;-78
2024/01/20 02:39:09;;;;;;;;;;;;;;;6.08;82.00;98513.03;5093471;28;20014;-78
2024/01/20 02:41:35;;;;;;;;;;;;;;;6.08;80.18;98519.28;5092172;28;20411;-78
2024/01/20 02:44:00;;;;;;;;;;;;;;;6.07;80.52;98528.72;5093473;28;19912;-78
2024/01/20 02:46:25;;;;;;;;;;;;;;;6.04;80.28;98535.00;5091906;28;19911;-78
2024/01/20 02:48:50;;;;;;;;;;;;;;;6.10;80.08;98543.53;5092336;28;19912;-77
2024/01/20 02:51:16;;;;;;;;;;;;;;;6.05;80.43;98552.22;5091874;28;19940;-77
2024/01/20 02:53:41;;;;;;;;;;;;;;;6.03;79.03;98551.84;5093236;28;19916;-77
2024/01/20 02:56:06;;;;;;;;;;;;;;;5.98;78.87;98549.56;5092547;28;20353;-77
2024/01/20 02:58:32;;;;;;;;;;;;;;;5.91;78.17;98552.38;5092032;28;19923;-77
2024/01/20 03:00:58;;;;;;;;;;;;;;;5.95;79.34;98555.88;5091679;28;19911;-77
2024/01/20 03:03:23;;;;;;;;;;;;;;;5.93;79.92;98561.78;5092996;28;20368;-77
2024/01/20 03:05:49;;;;;;;;;;;;;;;5.98;78.51;98550.34;5093042;28;20003;-78
2024/01/20 03:08:14;;;;;;;;;;;;;;;5.88;78.16;98548.50;5092051;28;19927;-78
2024/01/20 03:10:40;;;;;;;;;;;;;;;5.82;77.74;98543.84;5092811;28;19912;-77
2024/01/20 03:13:05;;;;;;;;;;;;;;;5.82;78.31;98558.34;5091889;28;19916;-78
2024/01/20 03:15:30;;;;;;;;;;;;;;;5.85;78.19;98559.47;5091477;28;19926;-78
2024/01/20 03:17:56;;;;;;;;;;;;;;;5.77;80.05;98560.75;5091403;28;20004;-78
2024/01/20 03:20:21;;;;;;;;;;;;;;;5.82;80.26;98568.53;5091436;28;19912;-78
2024/01/20 03:22:46;;;;;;;;;;;;;;;5.82;79.43;98582.22;5091507;28;19914;-77
2024/01/20 03:25:12;;;;;;;;;;;;;;;5.84;78.69;98596.31;5091544;28;19912;-78
2024/01/20 03:27:38;;;;;;;;;;;;;;;5.82;80.28;98604.94;5091370;28;19914;-78
2024/01/20 03:30:03;;;;;;;;;;;;;;;5.78;81.78;98615.19;5078082;28;20007;-77
2024/01/20 03:32:29;;;;;;;;;;;;;;;5.71;80.50;98618.75;5090978;28;19922;-77
2024/01/20 03:34:54;;;;;;;;;;;;;;;5.71;79.37;98612.50;5091107;28;19919;-77
2024/01/20 03:37:19;;;;;;;;;;;;;;;5.68;78.84;98616.03;5090692;28;19965;-78
2024/01/20 03:39:44;;;;;;;;;;;;;;;5.59;78.34;98619.25;5091273;28;19958;-77
2024/01/20 03:42:10;;;;;;;;;;;;;;;5.55;78.41;98623.97;5077548;28;20291;-78
2024/01/20 03:44:35;;;;;;;;;;;;;;;5.53;78.27;98629.09;5091000;28;19912;-78
2024/01/20 03:47:01;;;;;;;;;;;;;;;5.50;79.86;98648.28;5090922;28;19912;-77
2024/01/20 03:49:26;;;;;;;;;;;;;;;5.45;78.37;98643.25;5092285;28;19919;-79
2024/01/20 03:51:51;;;;;;;;;;;;;;;5.42;77.08;98652.28;5091076;28;19918;-78
2024/01/20 03:54:17;;;;;;;;;;;;;;;5.48;77.35;98661.63;5091895;28;19922;-77
2024/01/20 03:56:43;;;;;;;;;;;;;;;5.42;76.41;98666.00;5090697;28;20376;-78
2024/01/20 03:59:08;;;;;;;;;;;;;;;5.47;77.29;98677.28;5092018;28;20003;-78
2024/01/20 04:01:33;;;;;;;;;;;;;;;5.46;76.45;98680.44;5091920;28;19951;-79
2024/01/20 04:03:59;;;;;;;;;;;;;;;5.49;76.86;98694.09;5090808;28;20349;-77
2024/01/20 04:06:24;;;;;;;;;;;;;;;5.41;76.94;98687.13;5090637;28;19912;-78
2024/01/20 04:08:49;;;;;;;;;;;;;;;5.43;77.03;98692.97;5090703;28;19912;-77
2024/01/20 04:11:15;;;;;;;;;;;;;;;5.37;76.52;98710.22;5090495;28;19923;-77
2024/01/20 04:13:40;;;;;;;;;;;;;;;5.36;76.91;98704.00;5090542;28;20445;-78
2024/01/20 04:16:05;;;;;;;;;;;;;;;5.42;76.53;98709.81;5090172;28;20307;-78
2024/01/20 04:18:30;;;;;;;;;;;;;;;5.37;76.73;98694.56;5090740;28;20402;-77
2024/01/20 04:20:56;;;;;;;;;;;;;;;5.26;76.33;98702.06;5090016;28;19911;-77
2024/01/20 04:23:21;;;;;;;;;;;;;;;5.28;77.05;98710.69;5090283;28;20394;-77
2024/01/20 04:25:47;;;;;;;;;;;;;;;5.20;76.70;98736.53;5091171;28;19908;-77
2024/01/20 04:28:12;;;;;;;;;;;;;;;5.25;76.09;98728.69;5090302;28;19912;-77
2024/01/20 04:30:37;;;;;;;;;;;;;;;5.21;75.59;98733.41;5090086;28;19957;-77
2024/01/20 04:33:03;;;;;;;;;;;;;;;5.25;75.83;98738.88;5091520;28;19908;-79
2024/01/20 04:35:28;;;;;;;;;;;;;;;5.22;75.14;98751.41;5090208;28;20393;-78
2024/01/20 04:37:53;;;;;;;;;;;;;;;5.22;76.07;98751.41;5090354;28;19923;-77
2024/01/20 04:40:18;;;;;;;;;;;;;;;5.19;76.00;98763.16;5090172;28;20347;-77
2024/01/20 04:42:44;;;;;;;;;;;;;;;5.04;75.48;98758.16;5090061;28;19916;-77
2024/01/20 04:45:11;;;;;;;;;;;;;;;5.06;75.36;98764.03;5090152;28;19946;-77
2024/01/20 04:47:36;;;;;;;;;;;;;;;5.10;75.33;98770.25;5090256;28;19908;-77
2024/01/20 04:50:01;;;;;;;;;;;;;;;5.09;75.46;98771.44;5091298;28;20025;-77
2024/01/20 04:52:27;;;;;;;;;;;;;;;5.03;74.41;98773.78;5090312;28;19951;-77
2024/01/20 04:54:52;;;;;;;;;;;;;;;4.94;74.67;98769.94;5091065;28;19916;-77
2024/01/20 04:57:19;;;;;;;;;;;;;;;4.93;75.35;98780.09;5091516;28;19920;-77
2024/01/20 04:59:45;;;;;;;;;;;;;;;4.81;74.99;98780.53;5090002;28;19912;-77
2024/01/20 05:02:10;;;;;;;;;;;;;;;4.77;74.05;98788.75;5089786;28;19912;-77
2024/01/20 05:04:35;;;;;;;;;;;;;;;4.86;73.11;98802.81;5091221;28;19919;-78
2024/01/20 05:07:00;;;;;;;;;;;;;;;4.80;73.62;98800.88;5090067;28;20440;-77
2024/01/20 05:09:26;;;;;;;;;;;;;;;4.79;72.89;98807.50;5089905;28;20002;-77
2024/01/20 05:11:51;;;;;;;;;;;;;;;4.79;72.76;98830.19;5091319;28;19918;-78
2024/01/20 05:14:16;;;;;;;;;;;;;;;4.80;73.71;98837.22;5091328;28;20520;-76
2024/01/20 05:16:42;;;;;;;;;;;;;;;4.78;72.54;98830.56;5091218;28;20353;-77
2024/01/20 05:19:07;;;;;;;;;;;;;;;4.69;72.89;98830.22;5091525;28;19912;-78
2024/01/20 05:21:32;;;;;;;;;;;;;;;4.73;73.72;98831.75;5093879;28;19954;-77
2024/01/20 05:23:57;;;;;;;;;;;;;;;4.71;74.01;98833.31;5093633;28;19920;-77
2024/01/20 05:26:23;;;;;;;;;;;;;;;4.75;73.25;98834.91;5093729;28;20444;-77
2024/01/20 05:28:48;;;;;;;;;;;;;;;4.75;76.10;98836.84;5093808;28;19916;-78
2024/01/20 05:31:14;;;;;;;;;;;;;;;4.74;75.24;98838.81;5094726;28;19968;-79
2024/01/20 05:33:39;;;;;;;;;;;;;;;4.77;75.04;98835.25;5093862;28;19912;-77
2024/01/20 05:36:04;;;;;;;;;;;;;;;4.72;75.50;98848.56;5093395;28;19923;-78
2024/01/20 05:38:30;;;;;;;;;;;;;;;4.64;75.70;98852.50;5093292;28;19912;-78
2024/01/20 05:40:56;;;;;;;;;;;;;;;4.65;75.18;98875.94;5093430;28;20387;-77
2024/01/20 05:43:21;;;;;;;;;;;;;;;4.57;73.91;98860.72;5094077;28;19924;-78
2024/01/20 05:45:46;;;;;;;;;;;;;;;4.62;76.01;98863.84;5093222;28;19908;-77
2024/01/20 05:48:12;;;;;;;;;;;;;;;4.56;76.11;98859.16;5094271;28;19908;-78
2024/01/20 05:50:37;;;;;;;;;;;;;;;4.53;76.10;98871.66;5093120;28;19984;-77
2024/01/20 05:53:03;;;;;;;;;;;;;;;4.55;77.02;98880.25;5094038;28;19923;-79
2024/01/20 05:55:28;;;;;;;;;;;;;;;4.56;76.89;98870.88;5094340;28;19955;-77
2024/01/20 05:57:53;;;;;;;;;;;;;;;4.55;77.76;98880.25;5092879;28;19934;-77
2024/01/20 06:00:21;;;;;;;;;;;;;;;4.48;76.76;98886.50;5092860;28;19912;-77
2024/01/20 06:02:46;;;;;;;;;;;;;;;4.56;77.39;98881.03;5092917;28;20010;-78
2024/01/20 06:05:12;;;;;;;;;;;;;;;4.56;76.83;98881.84;5094154;28;19946;-77
2024/01/20 06:07:37;;;;;;;;;;;;;;;4.60;76.17;98893.53;5094344;28;20115;-77
2024/01/20 06:10:02;;;;;;;;;;;;;;;4.61;76.25;98894.31;5092848;28;20285;-77
2024/01/20 06:12:28;;;;;;;;;;;;;;;4.61;75.94;98895.13;5094078;28;20391;-77
2024/01/20 06:14:53;;;;;;;;;;;;;;;4.71;75.42;98899.00;5092549;28;19920;-79
2024/01/20 06:17:18;;;;;;;;;;;;;;;4.72;76.18;98906.03;5092523;28;19952;-77
2024/01/20 06:19:43;;;;;;;;;;;;;;;4.68;74.94;98906.06;5092926;28;19912;-77
2024/01/20 06:22:09;;;;;;;;;;;;;;;4.66;74.71;98910.34;5092442;28;20489;-77
2024/01/20 06:24:34;;;;;;;;;;;;;;;4.72;74.85;98920.50;5092495;28;20017;-78
2024/01/20 06:26:59;;;;;;;;;;;;;;;4.71;75.18;98920.91;5092471;28;19915;-78
2024/01/20 06:29:25;;;;;;;;;;;;;;;4.69;74.05;98929.53;5091840;28;19912;-78
2024/01/20 06:31:50;;;;;;;;;;;;;;;4.72;75.04;98928.72;5093146;28;19912;-76
2024/01/20 06:34:16;;;;;;;;;;;;;;;4.69;75.12;98937.72;5092158;28;19939;-77
2024/01/20 06:36:41;;;;;;;;;;;;;;;4.74;74.23;98942.81;5092243;28;20010;-77
2024/01/20 06:39:06;;;;;;;;;;;;;;;4.81;74.53;98950.25;5093499;28;20014;-79
2024/01/20 06:41:32;;;;;;;;;;;;;;;4.80;73.29;98954.94;5092232;28;20494;-77
2024/01/20 06:43:57;;;;;;;;;;;;;;;4.77;74.35;98960.38;5093405;28;19912;-77
2024/01/20 06:46:23;;;;;;;;;;;;;;;4.77;73.33;98958.44;5093240;28;19908;-78
2024/01/20 06:48:48;;;;;;;;;;;;;;;4.77;74.00;98955.69;5092504;28;19934;-77
2024/01/20 06:51:16;;;;;;;;;;;;;;;4.69;73.36;98967.84;5092019;28;20296;-77
2024/01/20 06:53:43;;;;;;;;;;;;;;;4.72;73.86;98964.31;5091832;28;19955;-77
2024/01/20 06:56:08;;;;;;;;;;;;;;;4.72;74.30;98960.78;5091640;28;19916;-77
2024/01/20 06:58:34;;;;;;;;;;;;;;;4.69;74.95;98965.09;5091530;28;19915;-77
2024/01/20 07:00:59;;;;;;;;;;;;;;;4.70;77.01;98974.09;5091519;28;20127;-77
2024/01/20 07:03:24;;;;;;;;;;;;;;;4.61;77.08;98988.16;5093361;28;20010;-77
2024/01/20 07:05:50;;;;;;;;;;;;;;;4.55;78.50;98989.69;5091783;28;19919;-77
2024/01/20 07:08:15;;;;;;;;;;;;;;;4.43;79.46;98996.34;5091809;28;20509;-77
2024/01/20 07:10:40;;;;;;;;;;;;;;;4.30;81.72;98999.81;5091630;28;19912;-79
2024/01/20 07:13:05;;;;;;;;;;;;;;;4.26;84.04;99002.56;5091977;28;19908;-77
2024/01/20 07:15:31;;;;;;;;;;;;;;;4.18;83.55;99005.63;5091670;28;19912;-77
2024/01/20 07:17:56;;;;;;;;;;;;;;;4.15;84.82;99003.69;5091553;28;19912;-77
2024/01/20 07:20:22;;;;;;;;;;;;;;;4.03;85.06;99016.53;5091651;28;19912;-78
2024/01/20 07:22:49;;;;;;;;;;;;;;;3.95;85.68;99016.88;5091288;28;20376;-78
2024/01/20 07:25:15;;;;;;;;;;;;;;;3.93;87.23;99027.41;5091328;28;19922;-77
2024/01/20 07:27:40;;;;;;;;;;;;;;;3.86;87.02;99030.13;5092722;28;19911;-78
2024/01/20 07:30:06;;;;;;;;;;;;;;;3.85;87.13;99029.34;5092474;28;19943;-78
2024/01/20 07:32:31;;;;;;;;;;;;;;;3.81;86.73;99033.22;5084839;28;19926;-77
2024/01/20 07:34:56;;;;;;;;;;;;;;;3.85;86.99;99040.28;5084264;28;20391;-77
2024/01/20 07:37:22;;;;;;;;;;;;;;;3.82;87.09;99049.22;5090925;28;19912;-78
2024/01/20 07:39:48;;;;;;;;;;;;;;;3.82;87.79;99056.66;5090150;28;19916;-78
2024/01/20 07:42:13;;;;;;;;;;;;;;;3.78;88.38;99056.63;5090215;28;20410;-78
2024/01/20 07:44:38;;;;;;;;;;;;;;;3.74;88.25;99061.28;5090630;28;20008;-78
2024/01/20 07:47:04;;;;;;;;;;;;;;;3.72;88.45;99066.38;5090737;28;19919;-78
2024/01/20 07:49:29;;;;;;;;;;;;;;;3.74;88.24;99082.38;5091013;28;19939;-79
2024/01/20 07:51:55;;;;;;;;;;;;;;;3.68;88.59;99074.53;5090754;28;20002;-78
2024/01/20 07:54:20;;;;;;;;;;;;;;;3.66;87.49;99081.56;5090395;28;19920;-81
2024/01/20 07:56:45;;;;;;;;;;;;;;;3.64;87.12;99083.88;5090767;28;20029;-77
2024/01/20 07:59:11;;;;;;;;;;;;;;;3.75;87.30;99084.72;5090415;28;20300;-77
2024/01/20 08:01:39;;;;;;;;;;;;;;;3.73;86.88;99097.22;5091748;28;20371;-78
2024/01/20 08:04:05;;;;;;;;;;;;;;;3.67;85.70;99110.44;5092133;28;19918;-77
2024/01/20 08:06:30;;;;;;;;;;;;;;;3.75;85.79;99101.13;5092152;28;19912;-77
2024/01/20 08:08:55;;;;;;;;;;;;;;;3.79;85.87;99101.16;5091113;28;19959;-77
2024/01/20 08:11:21;;;;;;;;;;;;;;;3.71;86.03;99115.94;5088706;28;19951;-77
2024/01/20 08:13:46;;;;;;;;;;;;;;;3.75;86.41;99119.44;5088851;28;19908;-78
2024/01/20 08:16:11;;;;;;;;;;;;;;;3.71;86.41;99129.59;5088565;28;20233;-79
2024/01/20 08:18:37;;;;;;;;;;;;;;;3.70;86.69;99112.41;5076693;28;20071;-78
2024/01/20 08:21:06;;;;;;;;;;;;;;;3.63;86.91;99126.78;5088330;28;19919;-78
2024/01/20 08:23:32;;;;;;;;;;;;;;;3.58;87.42;99137.28;5090315;28;19912;-77
2024/01/20 08:25:58;;;;;;;;;;;;;;;3.51;87.64;99131.78;5090189;28;19915;-78
2024/01/20 08:28:23;;;;;;;;;;;;;;;3.46;87.74;99140.31;5091371;28;19908;-77
2024/01/20 08:30:48;;;;;;;;;;;;;;;3.56;88.06;99153.28;5089962;28;20046;-78
2024/01/20 08:33:14;;;;;;;;;;;;;;;3.65;87.49;99151.00;5091497;28;19908;-78
2024/01/20 08:35:39;;;;;;;;;;;;;;;3.65;86.06;99167.41;5077812;28;19931;-78
2024/01/20 08:38:04;;;;;;;;;;;;;;;3.60;84.90;99165.81;5090138;28;20400;-78
2024/01/20 08:40:30;;;;;;;;;;;;;;;3.64;85.17;99171.31;5089899;28;19916;-78
2024/01/20 08:42:55;;;;;;;;;;;;;;;3.71;83.99;99179.56;5091419;28;19923;-79
2024/01/20 08:45:20;;;;;;;;;;;;;;;3.74;83.08;99189.72;5091336;28;20394;-78
2024/01/20 08:47:45;;;;;;;;;;;;;;;3.80;83.03;99181.97;5091424;28;20029;-78
2024/01/20 08:50:11;;;;;;;;;;;;;;;3.77;80.77;99186.25;5091208;28;19919;-78
2024/01/20 08:52:36;;;;;;;;;;;;;;;3.77;80.06;99205.38;5091792;28;19973;-78
2024/01/20 08:55:02;;;;;;;;;;;;;;;3.81;81.12;99197.19;5094603;28;19916;-77
2024/01/20 08:57:29;;;;;;;;;;;;;;;3.79;80.44;99205.78;5093878;28;19919;-78
2024/01/20 08:59:55;;;;;;;;;;;;;;;3.85;79.76;99208.94;5094079;28;19958;-78
2024/01/20 09:02:20;;;;;;;;;;;;;;;3.83;79.79;99203.06;5095286;28;19951;-78
2024/01/20 09:04:45;;;;;;;;;;;;;;;3.81;81.63;99208.91;5095198;28;19911;-78
2024/01/20 09:07:11;;;;;;;;;;;;;;;3.82;80.94;99202.28;5094140;28;19961;-77
2024/01/20 09:09:36;;;;;;;;;;;;;;;3.83;82.40;99214.78;5093727;28;20319;-78
2024/01/20 09:12:02;;;;;;;;;;;;;;;3.87;86.37;99223.00;5093740;28;19908;-78
2024/01/20 09:14:28;;;;;;;;;;;;;;;3.82;87.81;99217.88;5095113;28;19908;-78
2024/01/20 09:16:53;;;;;;;;;;;;;;;3.80;90.17;99212.03;5095266;28;20356;-78
2024/01/20 09:19:18;;;;;;;;;;;;;;;3.65;90.42;99211.91;5095269;28;19916;-79
2024/01/20 09:21:44;;;;;;;;;;;;;;;3.69;88.73;99212.72;5094791;28;19911;-78
2024/01/20 09:24:10;;;;;;;;;;;;;;;3.74;91.07;99219.78;5093562;28;19912;-78
2024/01/20 09:26:35;;;;;;;;;;;;;;;3.62;86.65;99218.13;5093567;28;19912;-78
2024/01/20 09:29:01;;;;;;;;;;;;;;;3.68;86.56;99224.03;5094595;28;19915;-78
2024/01/20 09:31:26;;;;;;;;;;;;;;;3.76;91.24;99222.94;5076714;28;19919;-78
2024/01/20 09:33:51;;;;;;;;;;;;;;;3.76;91.15;99228.38;5093551;28;19951;-78
2024/01/20 09:36:16;;;;;;;;;;;;;;;3.71;92.49;99226.00;5094757;28;19918;-78
2024/01/20 09:38:42;;;;;;;;;;;;;;;3.69;94.75;99222.88;5094189;28;19912;-79
2024/01/20 09:41:09;;;;;;;;;;;;;;;3.62;95.79;99228.25;5093588;28;20375;-78
2024/01/20 09:43:37;;;;;;;;;;;;;;;3.65;96.14;99219.31;5093440;28;19908;-77
2024/01/20 09:46:02;;;;;;;;;;;;;;;3.67;97.24;99234.19;5093504;28;19911;-78
2024/01/20 09:48:28;;;;;;;;;;;;;;;3.68;97.13;99230.28;5093410;28;19915;-78
2024/01/20 09:50:53;;;;;;;;;;;;;;;3.71;98.09;99225.22;5093557;28;19995;-78
2024/01/20 09:53:18;;;;;;;;;;;;;;;3.75;99.11;99229.56;5093608;28;20387;-77
2024/01/20 09:55:44;;;;;;;;;;;;;;;3.82;100.00;99231.56;5093171;28;19920;-78
2024/01/20 09:58:14;;;;;;;;;;;;;;;3.78;100.00;99234.28;5076403;28;19976;-78
2024/01/20 10:00:40;;;;;;;;;;;;;;;3.74;98.72;99233.44;5094390;28;20307;-78
2024/01/20 10:03:08;;;;;;;;;;;;;;;3.70;96.18;99232.63;5086247;28;19961;-78
2024/01/20 10:05:33;;;;;;;;;;;;;;;3.77;97.11;99234.66;5092055;28;19916;-77
2024/01/20 10:07:59;;;;;;;;;;;;;;;3.78;98.96;99237.00;5092069;28;19908;-79
2024/01/20 10:10:24;;;;;;;;;;;;;;;3.76;100.00;99231.13;5092710;28;20299;-78
2024/01/20 10:12:53;;;;;;;;;;;;;;;3.77;100.00;99245.56;5092424;28;19931;-78
2024/01/20 10:15:22;;;;;;;;;;;;;;;3.66;100.00;99240.81;5093151;28;19911;-78
2024/01/20 10:17:47;;;;;;;;;;;;;;;3.74;98.49;99241.63;5090509;28;19916;-77
2024/01/20 10:20:20;;;;;;;;;;;;;;;3.70;98.17;99235.38;5091679;28;19915;-77
2024/01/20 10:22:45;;;;;;;;;;;;;;;3.86;97.25;99243.31;5092449;28;19908;-78
2024/01/20 10:25:17;;;;;;;;;;;;;;;3.90;98.20;99246.88;5093468;28;20439;-78
2024/01/20 10:27:43;;;;;;;;;;;;;;;3.91;97.03;99251.97;5092509;28;19911;-78
2024/01/20 10:30:08;;;;;;;;;;;;;;;3.86;96.01;99257.00;5091759;28;20022;-79
2024/01/20 10:32:34;;;;;;;;;;;;;;;3.78;92.42;99252.63;5090201;28;19912;-78
2024/01/20 10:34:59;;;;;;;;;;;;;;;3.79;88.99;99249.50;5091384;28;20379;-80
2024/01/20 10:37:29;;;;;;;;;;;;;;;3.75;88.34;99251.41;5092234;28;19980;-78
2024/01/20 10:39:55;;;;;;;;;;;;;;;3.71;90.07;99256.06;5094220;28;19945;-79
2024/01/20 10:42:21;;;;;;;;;;;;;;;3.69;88.62;99258.38;5093000;28;19912;-78
2024/01/20 10:45:09;;;;;;;;;;;;;;;3.66;88.91;99251.75;5092441;28;20528;-78
2024/01/20 10:47:36;;;;;;;;;;;;;;;3.61;89.06;99262.22;5078925;28;19923;-78
2024/01/20 10:50:05;;;;;;;;;;;;;;;3.54;88.72;99271.13;5090546;28;19908;-78
2024/01/20 10:52:34;;;;;;;;;;;;;;;3.42;89.43;99265.94;5093542;28;19912;-79
2024/01/20 10:55:00;;;;;;;;;;;;;;;3.42;90.25;99267.88;5091851;28;19919;-78
2024/01/20 10:57:26;;;;;;;;;;;;;;;3.43;90.58;99274.94;5091680;28;20360;-78
2024/01/20 10:59:52;;;;;;;;;;;;;;;3.40;89.56;99281.91;5092266;28;20369;-79
2024/01/20 11:02:17;;;;;;;;;;;;;;;3.32;89.69;99274.00;5093604;28;19966;-79
2024/01/20 11:04:44;;;;;;;;;;;;;;;3.35;90.19;99276.00;5092030;28;20415;-78
2024/01/20 11:07:10;;;;;;;;;;;;;;;3.35;90.22;99289.66;5093119;28;19947;-79
2024/01/20 11:09:35;;;;;;;;;;;;;;;3.32;90.05;99279.47;5092395;28;19967;-79
2024/01/20 11:12:02;;;;;;;;;;;;;;;3.40;91.26;99281.91;5091193;28;19923;-78
2024/01/20 11:14:28;;;;;;;;;;;;;;;3.33;91.81;99289.22;5091118;28;19920;-79
2024/01/20 11:16:55;;;;;;;;;;;;;;;3.24;91.54;99289.56;5090169;28;19960;-79
2024/01/20 11:19:20;;;;;;;;;;;;;;;3.16;91.51;99296.06;5091227;28;19984;-80
2024/01/20 11:21:46;;;;;;;;;;;;;;;3.18;92.31;99299.22;5086548;28;20342;-80
2024/01/20 11:24:11;;;;;;;;;;;;;;;3.28;91.91;99301.28;5089680;28;19937;-79
2024/01/20 11:26:37;;;;;;;;;;;;;;;3.30;91.72;99292.72;5090524;28;20387;-79
2024/01/20 11:29:04;;;;;;;;;;;;;;;3.34;91.68;99296.28;5086632;28;19913;-78
2024/01/20 11:31:33;;;;;;;;;;;;;;;3.36;90.69;99296.69;5079797;28;19916;-80
2024/01/20 11:34:00;;;;;;;;;;;;;;;3.40;91.32;99305.72;5077701;28;19920;-79
2024/01/20 11:36:32;;;;;;;;;;;;;;;3.21;91.75;99310.19;5101044;28;19918;-79
2024/01/20 11:38:58;;;;;;;;;;;;;;;3.16;92.87;99312.47;5086170;28;19920;-78
2024/01/20 11:41:23;;;;;;;;;;;;;;;3.05;93.45;99308.81;5059815;28;20016;-79
2024/01/20 11:43:49;;;;;;;;;;;;;;;2.89;94.80;99317.19;5082542;28;19964;-78
2024/01/20 11:46:14;;;;;;;;;;;;;;;2.84;97.21;99322.97;5073286;28;19922;-79
2024/01/20 11:48:40;;;;;;;;;;;;;;;2.71;98.05;99327.09;5083182;28;19916;-80
2024/01/20 11:51:05;;;;;;;;;;;;;;;2.46;100.00;99332.19;5085193;28;19919;-79
2024/01/20 11:53:31;;;;;;;;;;;;;;;2.40;100.00;99328.19;5078664;28;19963;-78
2024/01/20 11:56:01;;;;;;;;;;;;;;;2.35;100.00;99333.97;5090713;28;19981;-78
2024/01/20 11:58:27;;;;;;;;;;;;;;;2.25;100.00;99338.06;5087375;28;19920;-78
2024/01/20 12:00:53;;;;;;;;;;;;;;;2.18;100.00;99337.16;5084336;28;19927;-80
2024/01/20 12:03:19;;;;;;;;;;;;;;;2.16;100.00;99334.03;5078394;28;19916;-79
2024/01/20 12:05:44;;;;;;;;;;;;;;;2.09;100.00;99339.38;5083216;28;19923;-80
2024/01/20 12:08:10;;;;;;;;;;;;;;;2.06;100.00;99340.88;5090711;28;20400;-81
2024/01/20 12:10:35;;;;;;;;;;;;;;;2.12;100.00;99341.34;5090826;28;20350;-80
2024/01/20 12:13:02;;;;;;;;;;;;;;;2.17;100.00;99346.53;5086229;28;20289;-80
2024/01/20 12:15:32;;;;;;;;;;;;;;;2.26;100.00;99358.75;5082074;28;19924;-79
2024/01/20 12:17:58;;;;;;;;;;;;;;;2.36;100.00;99357.31;5086538;28;19923;-79
2024/01/20 12:20:24;;;;;;;;;;;;;;;2.25;100.00;99359.09;5071406;28;19920;-81
2024/01/20 12:22:50;;;;;;;;;;;;;;;2.32;100.00;99354.56;5085899;28;20358;-83
2024/01/20 12:25:15;;;;;;;;;;;;;;;2.35;100.00;99355.78;5076271;28;20006;-81
2024/01/20 12:27:41;;;;;;;;;;;;;;;2.27;100.00;99367.72;5089675;28;19924;-80
2024/01/20 12:30:06;;;;;;;;;;;;;;;2.17;100.00;99360.91;5086187;28;19974;-81
2024/01/20 12:32:32;;;;;;;;;;;;;;;2.11;100.00;99367.06;5088321;28;20363;-81
2024/01/20 12:34:57;;;;;;;;;;;;;;;2.04;100.00;99375.91;5089452;28;19920;-83
2024/01/20 12:37:22;;;;;;;;;;;;;;;2.12;100.00;99371.31;5087509;28;19924;-80
2024/01/20 12:39:48;;;;;;;;;;;;;;;2.12;100.00;99371.31;5083462;28;19916;-81
2024/01/20 12:42:13;;;;;;;;;;;;;;;2.13;100.00;99379.16;5077980;28;19954;-84
2024/01/20 12:44:38;;;;;;;;;;;;;;;2.19;100.00;99383.16;5088537;28;20464;-81
2024/01/20 12:47:04;;;;;;;;;;;;;;;2.11;100.00;99383.41;5081624;28;19963;-83